Latest Weather Observations for Cape Grim

IDT60801

Issued at 9:31 pm EST Saturday 4 July 2015 (issued every 30 minutes, with the page automatically refreshed every 10 minutes)

About weather observations | Map of weather stations | Latest weather observations for TAS | Other Formats
Station Details ID: 091331 Name: CAPE GRIM Lat: -40.68 Lon: 144.69 Height: 86.0 m
Data from the previous 72 hours. | See also: Recent months at Cape Grim
Date/Time
EST
Temp
°C
App
Temp
°C
Dew
Point
Rel
Hum
%
Delta-T
°C
Wind Press
QNH
hPa
Press
MSL
hPa
Rain
since 9 am
mm
Dir
 
Spd
km/h
Gust
km/h
Spd
kts
Gust
kts
04/09:30pm 10.4 10.2 9.2 92 0.6 CALM 0 0 0 0 1016.8 1016.9 3.8
04/09:00pm 10.7 9.5 9.5 92 0.6 SSW 6 9 3 5 1016.8 1016.9 3.8
04/08:44pm 10.7 9.4 9.3 91 0.7 SW 6 7 3 4 1016.8 1016.9 3.8
04/08:30pm 10.8 9.4 9.6 92 0.6 SW 7 9 4 5 1016.8 1016.9 3.8
04/08:01pm 10.8 8.6 9.4 91 0.7 SW 11 13 6 7 1016.8 1016.9 3.6
04/08:00pm 10.8 8.7 9.6 92 0.6 SW 11 13 6 7 1016.8 1016.9 3.6
04/07:50pm 10.8 8.2 9.4 91 0.7 SW 13 15 7 8 1016.7 1016.8 3.6
04/07:30pm 10.7 7.7 9.3 91 0.7 SW 15 17 8 9 1016.8 1016.9 3.4
04/07:22pm 10.7 8.1 9.3 91 0.7 SW 13 17 7 9 1016.7 1016.8 3.4
04/07:00pm 10.8 7.1 9.4 91 0.7 SW 19 24 10 13 1016.8 1016.9 3.4
04/06:30pm 10.9 7.0 9.3 90 0.8 SW 20 26 11 14 1016.5 1016.6 3.4
04/05:30pm 11.0 6.4 9.6 91 0.7 SW 24 32 13 17 1016.1 1016.2 3.2
04/05:12pm 11.1 6.9 9.7 91 0.7 SW 22 30 12 16 1016.1 1016.2 3.2
04/05:00pm 11.1 6.9 9.9 92 0.6 SW 22 26 12 14 1016.0 1016.1 3.2
04/04:30pm 10.9 6.3 9.5 91 0.7 SW 24 32 13 17 1016.0 1016.1 3.2
04/04:14pm 11.1 5.8 9.7 91 0.7 SW 28 39 15 21 1016.0 1016.1 2.8
04/04:00pm 11.4 6.1 9.8 90 0.8 SW 28 35 15 19 1016.1 1016.2 2.8
04/03:54pm 11.2 6.2 9.6 90 0.8 SW 26 35 14 19 1016.0 1016.1 2.8
04/03:30pm 11.3 5.7 10.0 92 0.7 SW 30 35 16 19 1015.8 1015.9 2.8
04/03:00pm 11.3 5.6 9.9 91 0.7 SW 30 39 16 21 1015.6 1015.7 2.6
04/02:30pm 12.0 6.1 10.6 91 0.7 SW 32 39 17 21 1015.5 1015.6 2.6
04/02:00pm 11.8 7.8 10.5 92 0.7 SW 22 35 12 19 1015.4 1015.5 2.6
04/01:57pm 11.9 7.9 10.6 92 0.7 SW 22 35 12 19 1015.5 1015.6 2.6
04/01:30pm 11.4 6.2 10.1 92 0.7 SW 28 41 15 22 1015.5 1015.6 2.6
04/01:12pm 11.6 6.5 10.5 93 0.6 SW 28 46 15 25 1015.6 1015.7 2.4
04/01:00pm 11.5 7.5 10.4 93 0.6 WSW 22 37 12 20 1015.7 1015.8 2.4
04/12:50pm 11.4 7.0 10.3 93 0.6 WSW 24 39 13 21 1015.7 1015.8 2.4
04/12:30pm 11.3 6.1 10.2 93 0.6 SW 28 43 15 23 1015.8 1015.9 2.2
04/12:00pm 11.4 6.9 10.1 92 0.7 SW 24 37 13 20 1016.0 1016.1 0.8
04/11:30am 11.3 5.0 9.7 90 0.8 SW 33 46 18 25 1016.3 1016.4 0.0
04/11:20am 11.4 4.7 9.7 89 0.9 SW 35 46 19 25 1016.4 1016.5 0.0
04/11:06am 12.7 7.1 10.1 84 1.3 W 30 48 16 26 1016.4 1016.5 0.0
04/11:00am 12.7 6.5 10.1 84 1.3 W 33 48 18 26 1016.3 1016.4 0.0
04/10:37am 12.7 6.1 10.1 84 1.3 W 35 54 19 29 1016.2 1016.3 0.0
04/10:30am 12.7 5.7 10.1 84 1.3 W 37 54 20 29 1016.2 1016.3 0.0
04/10:02am 12.7 6.1 10.1 84 1.3 W 35 54 19 29 1016.1 1016.2 0.0
04/10:00am 12.7 6.1 10.1 84 1.3 W 35 50 19 27 1016.1 1016.2 0.0
04/09:30am 12.5 6.2 9.7 83 1.4 W 33 52 18 28 1016.0 1016.1 0.0
04/09:25am 12.5 6.3 9.9 84 1.3 W 33 52 18 28 1016.0 1016.1 0.0
04/09:00am 12.7 6.1 9.9 83 1.4 W 35 50 19 27 1016.0 1016.1 2.4
04/08:59am 12.7 6.1 9.9 83 1.4 W 35 54 19 29 1016.0 1016.1 2.4
04/08:30am 12.6 5.6 9.8 83 1.4 W 37 52 20 28 1015.8 1015.9 2.4
04/08:00am 12.4 6.1 9.8 84 1.3 W 33 50 18 27 1015.6 1015.7 2.4
04/07:35am 12.4 6.2 10.0 85 1.2 W 33 52 18 28 1015.5 1015.6 2.4
04/07:30am 12.5 5.9 10.0 85 1.3 W 35 52 19 28 1015.4 1015.5 2.4
04/07:16am 12.4 6.8 10.0 85 1.2 W 30 54 16 29 1015.5 1015.6 2.4
04/07:00am 12.5 5.9 10.0 85 1.3 W 35 50 19 27 1015.4 1015.5 2.4
04/06:35am 12.5 6.4 10.4 87 1.1 W 33 52 18 28 1015.4 1015.5 2.4
04/06:30am 12.5 6.0 10.2 86 1.2 W 35 52 19 28 1015.3 1015.4 2.4
04/05:39am 11.4 4.7 9.7 89 0.9 WSW 35 54 19 29 1015.0 1015.1 2.4
04/05:30am 12.5 6.1 10.7 89 0.9 W 35 48 19 26 1014.9 1015.0 2.4
04/05:19am 12.5 5.7 10.7 89 0.9 W 37 56 20 30 1014.9 1015.0 2.2
04/05:18am 12.4 5.2 10.6 89 0.9 W 39 56 21 30 1014.9 1015.0 2.2
04/05:07am 12.4 4.5 10.8 90 0.8 W 43 63 23 34 1014.9 1015.0 2.2
04/05:00am 12.6 5.5 11.0 90 0.8 W 39 54 21 29 1014.9 1015.0 2.2
04/04:59am 12.5 5.4 10.9 90 0.8 W 39 54 21 29 1015.0 1015.1 2.2
04/04:57am 12.5 5.4 10.9 90 0.8 W 39 54 21 29 1015.0 1015.1 2.2
04/04:39am 12.2 4.1 10.8 91 0.7 W 44 65 24 35 1014.9 1015.0 2.2
04/04:30am 12.3 4.4 10.9 91 0.7 W 43 54 23 29 1015.0 1015.1 2.2
04/04:25am 12.3 4.4 10.9 91 0.7 W 43 54 23 29 1015.0 1015.1 2.2
04/04:21am 12.3 4.2 10.9 91 0.7 WNW 44 56 24 30 1015.1 1015.2 2.0
04/04:00am 12.0 3.5 10.7 92 0.7 WNW 46 56 25 30 1015.1 1015.2 2.0
04/03:30am 11.7 3.4 10.1 90 0.8 WNW 44 59 24 32 1015.5 1015.6 1.8
04/03:22am 11.7 2.6 9.9 89 0.9 WNW 48 59 26 32 1015.6 1015.7 1.8
04/03:17am 11.9 3.2 10.0 88 1.0 WNW 46 57 25 31 1015.6 1015.7 1.4
04/03:02am 12.1 4.3 9.8 86 1.2 WNW 41 52 22 28 1015.9 1016.0 1.2
04/03:00am 12.2 4.4 9.9 86 1.2 WNW 41 56 22 30 1015.9 1016.0 1.2
04/02:54am 12.2 3.9 9.9 86 1.2 WNW 44 57 24 31 1016.0 1016.1 1.2
04/02:41am 12.1 3.4 9.8 86 1.2 WNW 46 56 25 30 1016.2 1016.3 1.2
04/02:36am 12.1 3.3 9.7 85 1.2 WNW 46 56 25 30 1016.2 1016.3 1.2
04/02:30am 12.2 3.9 9.9 86 1.2 WNW 44 56 24 30 1016.2 1016.3 1.2
04/02:20am 12.0 3.2 9.6 85 1.2 WNW 46 59 25 32 1016.2 1016.3 1.2
04/02:00am 11.6 4.5 9.5 87 1.1 WNW 37 48 20 26 1016.3 1016.4 1.2
04/01:30am 11.5 3.5 8.9 84 1.3 WNW 41 52 22 28 1016.9 1017.0 1.2
04/01:00am 11.6 2.2 8.6 82 1.5 W 48 63 26 34 1017.0 1017.1 1.2
04/12:50am 11.8 2.6 7.9 77 1.9 W 46 65 25 35 1017.1 1017.2 1.2
04/12:30am 12.0 3.5 8.7 80 1.6 WNW 43 56 23 30 1017.3 1017.5 1.2
04/12:00am 11.7 3.2 8.6 81 1.5 WNW 43 56 23 30 1017.7 1018.0 1.2
 
Date/Time
EST
Temp
°C
App
Temp
°C
Dew
Point
Rel
Hum
%
Delta-T
°C
Wind Press
QNH
hPa
Press
MSL
hPa
Rain
since 9 am
mm
Dir
 
Spd
km/h
Gust
km/h
Spd
kts
Gust
kts
03/11:30pm 11.8 2.9 7.7 76 2.0 WNW 44 56 24 30 1018.1 1018.2 1.2
03/11:00pm 11.7 3.0 7.6 76 2.0 W 43 54 23 29 1018.6 1018.7 1.2
03/10:30pm 11.3 2.5 7.2 76 2.0 W 43 59 23 32 1018.7 1018.8 1.2
03/10:00pm 11.4 2.8 6.3 71 2.4 W 41 50 22 27 1019.3 1019.4 1.2
03/09:30pm 10.9 2.6 5.9 71 2.3 W 39 57 21 31 1019.5 1019.6 1.2
03/09:20pm 10.6 1.3 6.0 73 2.1 WNW 44 63 24 34 1019.6 1019.7 1.2
03/09:00pm 10.8 1.5 5.8 71 2.3 W 44 57 24 31 1019.7 1019.8 1.2
03/08:30pm 10.3 1.7 6.6 78 1.7 WNW 41 48 22 26 1019.9 1020.0 1.2
03/08:00pm 10.3 1.6 6.1 75 1.9 WNW 41 52 22 28 1020.2 1020.3 1.2
03/07:30pm 9.9 0.9 6.2 78 1.7 WNW 43 52 23 28 1020.4 1020.5 1.2
03/07:00pm 8.8 0.9 6.1 83 1.2 W 37 56 20 30 1020.8 1020.9 1.2
03/06:44pm 9.9 1.6 6.2 78 1.7 W 39 61 21 33 1020.8 1020.9 1.2
03/06:30pm 8.9 0.5 5.8 81 1.4 WNW 39 54 21 29 1020.9 1021.0 1.2
03/06:15pm 9.6 2.0 5.8 77 1.7 W 35 57 19 31 1021.1 1021.2 1.2
03/06:00pm 9.6 2.6 6.0 78 1.7 W 32 46 17 25 1021.1 1021.2 1.2
03/05:46pm 9.4 0.7 5.8 78 1.7 W 41 59 22 32 1021.1 1021.2 1.2
03/05:30pm 8.9 1.3 6.0 82 1.3 W 35 52 19 28 1021.0 1021.1 1.2
03/05:12pm 9.5 3.4 6.6 82 1.4 W 28 56 15 30 1021.3 1021.4 1.0
03/05:00pm 8.8 3.0 6.2 84 1.2 W 26 41 14 22 1021.5 1021.6 1.0
03/04:35pm 9.6 2.1 6.1 79 1.6 W 35 54 19 29 1021.3 1021.4 1.0
03/04:30pm 9.4 2.2 6.1 80 1.5 W 33 44 18 24 1021.5 1021.6 1.0
03/04:04pm 8.6 1.4 6.1 84 1.1 W 33 52 18 28 1021.7 1021.8 0.8
03/04:00pm 8.7 0.8 6.2 84 1.1 WNW 37 52 20 28 1021.8 1021.9 0.8
03/03:39pm 9.2 2.2 5.9 80 1.5 W 32 54 17 29 1021.8 1021.9 0.8
03/03:30pm 9.6 2.6 6.1 79 1.6 WNW 32 39 17 21 1022.0 1022.1 0.8
03/03:11pm 8.8 0.8 5.9 82 1.3 WNW 37 56 20 30 1022.2 1022.3 0.8
03/03:00pm 9.5 1.0 5.1 74 2.0 W 39 52 21 28 1022.1 1022.2 0.8
03/02:36pm 8.8 0.9 6.1 83 1.2 W 37 56 20 30 1022.4 1022.5 0.8
03/02:30pm 8.6 0.2 5.7 82 1.3 WNW 39 56 21 30 1022.4 1022.5 0.8
03/02:26pm 8.8 1.1 5.5 80 1.5 WNW 35 56 19 30 1022.4 1022.5 0.8
03/02:00pm 9.1 2.8 5.8 80 1.5 W 28 37 15 20 1022.6 1022.7 0.8
03/01:30pm 9.1 2.0 5.5 78 1.6 W 32 46 17 25 1023.0 1023.1 0.6
03/01:00pm 9.0 4.4 5.6 79 1.5 WSW 19 39 10 21 1023.2 1023.3 0.4
03/12:30pm 9.4 3.8 5.4 76 1.8 W 24 35 13 19 1023.8 1023.9 0.4
03/12:00pm 9.5 4.8 6.0 79 1.6 W 20 32 11 17 1024.1 1024.2 0.2
03/11:30am 9.2 3.3 5.6 78 1.6 W 26 39 14 21 1024.7 1024.8 0.2
03/11:00am 9.5 3.1 5.3 75 1.9 W 28 43 15 23 1025.0 1025.1 0.2
03/10:30am 9.8 4.7 6.0 77 1.8 W 22 39 12 21 1025.2 1025.3 0.2
03/10:00am 9.1 4.8 5.1 76 1.8 W 17 24 9 13 1025.2 1025.3 0.2
03/09:30am 9.3 5.6 4.5 72 2.1 WSW 13 20 7 11 1025.4 1025.5 0.0
03/09:06am 9.2 2.7 4.6 73 2.1 W 28 46 15 25 1025.4 1025.5 0.0
03/09:00am 9.7 3.9 4.5 70 2.3 W 24 41 13 22 1025.4 1025.5 0.8
03/08:30am 9.7 4.3 2.3 60 3.1 WSW 20 32 11 17 1025.3 1025.4 0.8
03/08:00am 9.6 4.4 2.2 60 3.1 W 19 28 10 15 1025.2 1025.3 0.8
03/07:30am 9.6 4.4 2.2 60 3.1 WSW 19 32 10 17 1025.1 1025.2 0.8
03/07:00am 9.7 4.6 3.2 64 2.8 WSW 19 35 10 19 1024.8 1024.9 0.8
03/06:30am 9.5 4.4 3.0 64 2.8 SW 19 35 10 19 1024.7 1024.8 0.8
03/06:00am 9.2 2.6 4.2 71 2.2 SW 28 39 15 21 1024.8 1024.9 0.8
03/05:30am 9.4 4.2 3.4 66 2.6 WSW 20 35 11 19 1024.6 1024.7 0.8
03/05:00am 8.8 1.7 3.8 71 2.2 SW 30 43 16 23 1024.7 1024.8 0.8
03/04:30am 9.2 1.7 3.4 67 2.5 SW 32 44 17 24 1024.5 1024.6 0.8
03/04:29am 9.1 2.0 3.3 67 2.5 SW 30 44 16 24 1024.5 1024.6 0.8
03/04:00am 9.0 3.5 4.2 72 2.1 WSW 22 39 12 21 1024.7 1024.8 0.8
03/03:30am 9.0 1.6 4.0 71 2.2 SW 32 41 17 22 1025.0 1025.1 0.8
03/03:00am 8.7 1.4 4.3 74 1.9 SW 32 46 17 25 1025.4 1025.5 0.8
03/02:41am 7.9 0.5 4.8 81 1.4 SW 33 54 18 29 1025.5 1025.6 0.8
03/02:30am 8.4 0.2 4.6 77 1.7 SW 37 50 20 27 1025.6 1025.7 0.8
03/02:00am 8.7 0.3 3.9 72 2.1 SW 37 48 20 26 1025.7 1025.8 0.8
03/01:30am 8.9 0.5 3.9 71 2.2 SW 37 50 20 27 1025.6 1025.7 0.8
03/01:00am 8.8 -0.4 3.6 70 2.2 SW 41 52 22 28 1025.6 1025.7 0.8
03/12:30am 8.8 0.1 4.0 72 2.1 SW 39 52 21 28 1025.6 1025.7 0.8
03/12:25am 8.5 0.1 3.6 71 2.1 SW 37 56 20 30 1025.6 1025.7 0.8
03/12:00am 8.8 -0.5 3.0 67 2.5 SW 41 54 22 29 1025.7 1025.8 0.8
 
Date/Time
EST
Temp
°C
App
Temp
°C
Dew
Point
Rel
Hum
%
Delta-T
°C
Wind Press
QNH
hPa
Press
MSL
hPa
Rain
since 9 am
mm
Dir
 
Spd
km/h
Gust
km/h
Spd
kts
Gust
kts
02/11:30pm 8.2 -2.0 3.1 70 2.2 SW 46 61 25 33 1025.7 1025.8 0.8
02/11:27pm 8.8 -0.8 3.6 70 2.3 SW 43 61 23 33 1025.5 1025.6 0.8
02/11:00pm 8.8 -0.8 3.2 68 2.4 SW 43 57 23 31 1025.5 1025.6 0.8
02/10:30pm 8.7 -0.9 3.3 69 2.3 SW 43 52 23 28 1025.8 1025.9 0.8
02/10:00pm 8.6 -0.9 1.5 61 2.9 SW 41 54 22 29 1026.0 1026.1 0.8
02/09:30pm 8.7 0.6 3.1 68 2.4 SW 35 54 19 29 1026.0 1026.1 0.8
02/09:15pm 8.3 -0.6 2.8 68 2.3 SW 39 57 21 31 1026.0 1026.1 0.8
02/09:00pm 8.3 -0.5 3.4 71 2.1 SW 39 50 21 27 1025.9 1026.0 0.8
02/08:37pm 8.3 0.6 3.6 72 2.0 SW 33 52 18 28 1025.7 1025.8 0.8
02/08:30pm 8.3 0.6 3.2 70 2.2 SSW 33 48 18 26 1025.7 1025.8 0.8
02/08:00pm 8.2 0.6 3.9 74 1.9 SSW 33 44 18 24 1025.3 1025.4 0.8
02/07:39pm 7.9 -0.6 3.4 73 1.9 SSW 37 56 20 30 1025.1 1025.2 0.8
02/07:30pm 8.5 -0.1 2.7 67 2.5 SW 37 52 20 28 1024.8 1024.9 0.8
02/07:00pm 8.7 -1.5 3.1 68 2.4 SW 46 56 25 30 1024.4 1024.5 0.8
02/06:30pm 7.1 -4.6 3.2 76 1.6 SW 54 76 29 41 1024.2 1024.3 0.6
02/06:27pm 6.7 -5.1 2.8 76 1.6 SW 54 76 29 41 1024.4 1024.5 0.6
02/06:22pm 7.5 -3.4 3.4 75 1.7 SW 50 74 27 40 1024.0 1024.1 0.6
02/06:03pm 8.1 -0.7 3.8 74 1.9 SSW 39 59 21 32 1023.6 1023.7 0.6
02/06:00pm 8.7 0.0 4.3 74 1.9 SW 39 56 21 30 1023.7 1023.8 0.6
02/05:31pm 7.9 -1.6 3.9 76 1.7 SSW 43 61 23 33 1023.4 1023.5 0.4
02/05:30pm 7.8 -1.7 4.0 77 1.6 SSW 43 59 23 32 1023.3 1023.4 0.4
02/05:00pm 8.6 -2.5 2.4 65 2.6 SW 50 69 27 37 1022.7 1022.8 0.2
02/04:31pm 8.7 -1.1 3.3 69 2.3 SW 44 72 24 39 1022.5 1022.6 0.2
02/04:30pm 8.7 -1.1 3.5 70 2.2 SW 44 61 24 33 1022.5 1022.6 0.2
02/04:26pm 8.4 -1.8 3.3 70 2.2 SW 46 65 25 35 1022.5 1022.6 0.2
02/04:06pm 7.9 -5.1 3.6 74 1.9 SW 61 83 33 45 1022.5 1022.6 0.2
02/04:04pm 7.4 -6.5 2.9 73 1.9 SW 65 83 35 45 1022.4 1022.5 0.2
02/04:00pm 8.2 -5.2 3.5 72 2.0 SW 63 83 34 45 1022.2 1022.3 0.2
02/03:56pm 8.8 -2.8 3.8 71 2.2 SW 54 83 29 45 1022.0 1022.1 0.2
02/03:30pm 9.6 0.2 4.2 69 2.4 SW 43 63 23 34 1021.8 1021.9 0.2
02/03:12pm 9.3 -2.6 2.4 62 2.9 SW 54 74 29 40 1021.3 1021.4 0.2
02/03:00pm 9.6 -2.8 2.5 61 3.0 SW 57 72 31 39 1021.2 1021.3 0.2
02/02:33pm 9.5 -1.9 2.8 63 2.9 SW 52 70 28 38 1020.6 1020.7 0.2
02/02:30pm 9.5 -2.3 2.8 63 2.9 SW 54 70 29 38 1020.6 1020.7 0.2
02/02:00pm 9.4 -2.4 2.5 62 2.9 SW 54 76 29 41 1020.5 1020.6 0.2
02/01:30pm 9.4 -3.0 1.3 57 3.4 SW 56 74 30 40 1020.1 1020.2 0.2
02/01:03pm 9.4 -2.9 2.3 61 3.0 SW 56 74 30 40 1019.5 1019.6 0.2
02/01:00pm 9.5 -2.3 2.8 63 2.9 SW 54 70 29 38 1019.5 1019.6 0.2
02/12:32pm 8.5 -3.7 3.9 73 2.0 SW 57 76 31 41 1019.3 1019.4 0.2
02/12:30pm 8.7 -4.1 4.5 75 1.9 SW 61 76 33 41 1019.2 1019.3 0.2
02/12:00pm 9.8 -2.1 2.2 59 3.2 SW 54 72 29 39 1019.0 1019.1 0.0
02/11:30am 9.3 -1.8 2.4 62 2.9 SW 50 69 27 37 1018.9 1019.0 0.0
02/11:22am 9.0 -1.3 2.8 65 2.6 SSW 46 69 25 37 1018.9 1019.0 0.0
02/11:20am 9.1 -1.4 3.9 70 2.3 SSW 48 69 26 37 1018.9 1019.0 0.0
02/11:03am 9.1 -3.0 4.1 71 2.2 SW 57 76 31 41 1018.6 1018.7 0.0
02/11:00am 9.6 -2.8 2.5 61 3.0 SW 57 72 31 39 1018.6 1018.7 0.0
02/10:41am 9.2 -3.1 3.4 67 2.5 SW 57 83 31 45 1018.4 1018.5 0.0
02/10:30am 9.0 -3.3 3.0 66 2.6 SW 57 74 31 40 1018.3 1018.4 0.0
02/10:00am 8.6 -3.6 2.8 67 2.5 SW 56 74 30 40 1017.9 1018.0 0.0
02/09:42am 7.9 -3.7 3.8 75 1.8 SW 54 72 29 39 1017.4 1017.6 0.0
02/09:30am 7.8 -2.8 3.3 73 1.9 SW 48 61 26 33 1017.3 1017.5 0.0
02/09:02am 7.9 -3.9 2.8 70 2.2 SW 54 72 29 39 1016.5 1016.6 0.0
02/09:00am 8.0 -3.2 3.8 75 1.8 SW 52 69 28 37 1016.4 1016.5 10.2
02/08:30am 6.9 -6.4 4.0 82 1.2 SW 63 87 34 47 1015.9 1016.0 10.0
02/08:00am 7.8 -3.5 3.7 75 1.8 SW 52 78 28 42 1015.4 1015.5 10.0
02/07:30am 7.4 -4.6 3.8 78 1.5 SW 56 74 30 40 1014.2 1014.3 10.0
02/07:29am 7.3 -4.7 3.9 79 1.5 SW 56 74 30 40 1014.1 1014.2 10.0
02/07:15am 6.0 -6.6 3.5 84 1.1 SW 59 87 32 47 1013.8 1013.9 10.0
02/07:04am 5.6 -5.2 1.9 77 1.5 SW 48 91 26 49 1013.6 1013.7 9.0
02/07:03am 7.0 -2.8 3.3 77 1.6 SW 44 91 24 49 1013.7 1013.8 8.4
02/07:00am 7.9 -0.3 4.8 81 1.4 SW 37 63 20 34 1013.8 1013.9 8.4
02/06:30am 7.1 -4.1 4.2 82 1.3 WSW 52 91 28 49 1013.4 1013.5 8.4
02/06:26am 7.1 -3.8 3.7 79 1.5 WSW 50 91 27 49 1013.1 1013.2 8.2
02/06:24am 7.7 -3.1 3.9 77 1.6 WSW 50 76 27 41 1013.3 1013.4 8.0
02/06:22am 7.9 -3.3 3.9 76 1.7 WSW 52 76 28 41 1013.1 1013.2 7.8
02/06:18am 8.4 -2.4 4.0 74 1.9 SW 50 74 27 40 1013.1 1013.2 7.6
02/06:16am 8.4 -2.4 4.0 74 1.9 SW 50 74 27 40 1013.0 1013.1 7.6
02/06:01am 8.3 -1.1 4.7 78 1.6 SW 43 57 23 31 1013.2 1013.3 7.6
02/06:00am 8.2 -1.2 4.6 78 1.6 SW 43 57 23 31 1013.3 1013.4 7.6
02/05:58am 8.2 -1.7 4.8 79 1.5 SW 46 61 25 33 1013.2 1013.3 7.6
02/05:40am 7.2 -5.6 4.7 84 1.1 SW 61 78 33 42 1013.1 1013.2 7.6
02/05:30am 6.7 -7.1 3.3 79 1.4 SW 65 96 35 52 1012.7 1012.8 7.6
02/05:29am 6.7 -6.4 2.8 76 1.6 SW 61 96 33 52 1012.6 1012.7 7.6
02/05:25am 7.2 -3.3 1.7 68 2.2 WSW 46 96 25 52 1012.3 1012.4 7.6
02/05:23am 10.3 2.3 4.0 65 2.8 WSW 35 76 19 41 1012.4 1012.5 7.6
02/05:00am 10.2 2.8 3.9 65 2.8 WSW 32 52 17 28 1012.2 1012.3 7.6
02/04:30am 9.3 0.0 2.9 64 2.7 W 41 61 22 33 1012.2 1012.3 7.6
02/04:00am 8.9 0.5 3.9 71 2.2 W 37 56 20 30 1012.3 1012.4 7.6
02/03:30am 9.4 0.4 4.8 73 2.1 WSW 41 70 22 38 1012.4 1012.5 7.4
02/03:14am 9.2 -1.7 3.6 68 2.4 SW 50 74 27 40 1012.4 1012.5 6.6
02/03:11am 9.1 -1.0 3.5 68 2.4 SW 46 74 25 40 1012.4 1012.5 6.6
02/03:00am 10.3 2.2 3.3 62 3.1 WSW 35 61 19 33 1012.5 1012.6 6.6
02/02:38am 10.1 -0.5 5.1 71 2.3 WSW 50 83 27 45 1012.4 1012.5 6.6
02/02:34am 9.7 0.0 3.7 66 2.6 WSW 44 83 24 45 1012.3 1012.4 6.6
02/02:33am 10.1 1.0 4.0 66 2.7 WSW 41 83 22 45 1012.2 1012.3 6.6
02/02:30am 10.6 2.7 4.5 66 2.7 WSW 35 61 19 33 1012.3 1012.4 6.6
02/02:00am 10.3 1.5 3.8 64 2.9 WSW 39 63 21 34 1012.3 1012.4 6.6
02/01:30am 10.0 1.9 5.4 73 2.1 WSW 37 69 20 37 1012.4 1012.5 6.6
02/01:00am 9.3 0.2 6.6 83 1.3 WSW 44 69 24 37 1012.6 1012.7 6.6
02/12:30am 9.5 0.2 6.0 79 1.6 WSW 44 70 24 38 1012.4 1012.5 5.8
02/12:00am 11.1 1.3 5.2 67 2.7 W 46 80 25 43 1012.0 1012.1 5.2
 
Date/Time
EST
Temp
°C
App
Temp
°C
Dew
Point
Rel
Hum
%
Delta-T
°C
Wind Press
QNH
hPa
Press
MSL
hPa
Rain
since 9 am
mm
Dir
 
Spd
km/h
Gust
km/h
Spd
kts
Gust
kts
01/11:30pm 11.0 2.1 4.9 66 2.8 WSW 41 72 22 39 1012.2 1012.3 5.2
01/11:00pm 11.5 2.6 4.9 64 3.0 WSW 41 72 22 39 1012.2 1012.3 5.2
01/10:30pm 11.6 2.3 5.7 67 2.8 WSW 44 70 24 38 1012.2 1012.3 5.2
01/10:00pm 12.0 1.9 5.6 65 3.0 W 48 69 26 37 1012.1 1012.2 5.2

Other Formats:

Comma delimited format used in spreadsheet applications
http://www.bom.gov.au/fwo/IDT60801/IDT60801.95954.axf

JavaScript Object Notation format (JSON) in row-major order
http://www.bom.gov.au/fwo/IDT60801/IDT60801.95954.json